Scf Alpine — A8XQ2 — position and weather

sailwx.info

Track history (hours):
 
Tides and Currents Weather Stations Pressure Air Temp Water Temp Dewpoint Dewpoint Depression Visibility Wind Speed Wind Dir Waves Ship Positions

Scf Alpine

Last reported at 2017-May-27 09:12 UTC. Time now 2017-May-27 23:07 UTC.
Position S 38°11' E 149°29'.

Length 228 m; draft 9.5 m.

Type: Ship. MMSI: 636014957.

Date/timePositionNaut miles runAvg speedWind from/ knotsBaromVisibWave heightAir tempDewpointWater temp
2017-May-27 09:12S 38°11' E 149°29'313.4
2017-May-27 08:59S 38°12' E 149°26'613.3
2017-May-27 08:30S 38°16' E 149°19'713.5
2017-May-27 08:00S 38°19' E 149°12'713.3
2017-May-27 07:30S 38°23' E 149°05'613.0
2017-May-27 07:00S 38°26' E 148°58'712.7
2017-May-27 06:28S 38°30' E 148°50'612.6
2017-May-27 06:00S 38°33' E 148°44'813.0
2017-May-27 05:23S 38°37' E 148°35'513.0
2017-May-27 05:00S 38°40' E 148°30'612.9
2017-May-27 04:30S 38°43' E 148°23'713.1
2017-May-27 04:00S 38°47' E 148°16'714.0
2017-May-27 03:30S 38°48' E 148°07'713.6
2017-May-27 03:00S 38°50' E 147°59'713.2
2017-May-27 02:30S 38°52' E 147°50'713.0
2017-May-27 02:00S 38°53' E 147°42'612.9
2017-May-27 01:30S 38°55' E 147°34'612.6
2017-May-27 01:00S 38°57' E 147°27'612.3
2017-May-27 00:30S 38°58' E 147°19'612.3
2017-May-27 00:01S 38°60' E 147°11'812.0
2017-May-26 23:18S 39°04' E 147°02'412.1
2017-May-26 22:59S 39°06' E 146°58'3212.3
2017-May-26 20:25S 39°18' E 146°20'  
Track history (hours):
 
Tides and Currents Weather Stations Pressure Air Temp Water Temp Dewpoint Dewpoint Depression Visibility Wind Speed Wind Dir Waves Ship Positions

Scf Alpine

Last reported at 2017-May-27 09:12 UTC. Time now 2017-May-27 23:07 UTC.
Position S 38°11' E 149°29'.

Length 228 m; draft 9.5 m.

Type: Ship. MMSI: 636014957.

Date/timePositionNaut miles runAvg speedWind from/ knotsBaromVisibWave heightAir tempDewpointWater temp
2017-May-27 09:12S 38°11' E 149°29'313.4
2017-May-27 08:59S 38°12' E 149°26'613.3
2017-May-27 08:30S 38°16' E 149°19'713.5
2017-May-27 08:00S 38°19' E 149°12'713.3
2017-May-27 07:30S 38°23' E 149°05'613.0
2017-May-27 07:00S 38°26' E 148°58'712.7
2017-May-27 06:28S 38°30' E 148°50'612.6
2017-May-27 06:00S 38°33' E 148°44'813.0
2017-May-27 05:23S 38°37' E 148°35'513.0
2017-May-27 05:00S 38°40' E 148°30'612.9
2017-May-27 04:30S 38°43' E 148°23'713.1
2017-May-27 04:00S 38°47' E 148°16'714.0
2017-May-27 03:30S 38°48' E 148°07'713.6
2017-May-27 03:00S 38°50' E 147°59'713.2
2017-May-27 02:30S 38°52' E 147°50'713.0
2017-May-27 02:00S 38°53' E 147°42'612.9
2017-May-27 01:30S 38°55' E 147°34'612.6
2017-May-27 01:00S 38°57' E 147°27'612.3
2017-May-27 00:30S 38°58' E 147°19'612.3
2017-May-27 00:01S 38°60' E 147°11'812.0
2017-May-26 23:18S 39°04' E 147°02'412.1
2017-May-26 22:59S 39°06' E 146°58'3212.3
2017-May-26 20:25S 39°18' E 146°20'  

Dump ship's entire track history